weather.gov     
National Weather Service

Terminal Aerodrome Forecast
NWS Homepage
This page is being discontinued on March 12, 2014.
The same data is available at this site. Please update your bookmarks.
Thank you, and we apologize for the inconvenience.
Please send an email to SR-SRH.Webmaster@noaa.gov with any concerns.


Current Version
Previous Version:    01  02  03  04  05  06  07  08  09  10  11  12  13  14  
[Printable]
499
FTUS41 KGYX 310800 AAA
TAFAUG
TAF AMD
KAUG 310819Z 3108/0106 VRB03KT 5SM BR OVC004
      TEMPO 3109/3112 1/2SM FG VV002
     FM311200 VRB03KT 3SM BR BKN005
     FM311300 17004KT P6SM SCT250
     FM311800 16007KT P6SM BKN100 PROB30 3118/3123 2SM TSRA BR
      BKN025CB
     FM312300 20004KT P6SM SCT050 BKN250
     FM010400 VRB03KT 3SM BR FEW002 SCT250=


U.S. Dept. of Commerce
NOAA National Weather Service
1325 East West Highway
Silver Spring, MD 20910
E-mail: w-nws.webmaster@noaa.gov
Page last modified: May 16, 2007
NATIONAL WEATHER SERVICE: for Safety, for Work, for Fun - FOR LIFE